Wise River, Montana
Current Conditions -  °F | °C
As of 7:53 AM on Wednesday 26 Nov 2014 (Local Time) from KBTM Reporting Station
Overcast Overcast  
Wind Chill: 28°   Ceiling: 6500
Heat Index: 28°   Visibility: 10mi
Dew Point: 26°   Wind: 3mph
Humidity: 92%   Direction: 140°SE
Pressure: 30.09"   Gusts: NA
Location:  45.79°N, 112.95°W
Report Text: KBTM 261453Z AUTO 14003KT 10SM BKN065 OVC080 M02/M03 A3009 RMK AO2 UPE39 SLP222 P0000 60003 T10221033 53002
Loading
Personal Weather Stations






























Interactive Weather Map New forecast layout! Learn more

10-Day Weather Forecast

Advertisements
Track Severe Weather on mobile